Weather History for Williams, AZ

Change the Weather History Date:

Wednesday, June 4, 2014

  Actual Average (KFLG) Record (KFLG)
Temperature  
Mean Temperature 58 °F 56 °F  
Max Temperature 80 °F 75 °F 89 °F (1990)
Min Temperature 35 °F 38 °F 23 °F (1908)
Degree Days  
Heating Degree Days 8 9  
Month to date heating degree days 37  
Since 1 July heating degree days 6810  
Cooling Degree Days 0 0  
Month to date cooling degree days 0  
Year to date cooling degree days 0  
Growing Degree Days 8 (Base 50)    
Moisture  
Dew Point -7 °F    
Average Humidity 8    
Maximum Humidity 20    
Minimum Humidity 4    
Precipitation  
Precipitation 0.00 in 0.01 in 0.52 in (1986)
Month to date precipitation 0.05  
Year to date precipitation 8.16  
Snow  
Snow 0.00 in 0.00 in T in (1999)
Month to date snowfall 0.0  
Since 1 July snowfall 101.7  
Snow Depth -    
Sea Level Pressure  
Sea Level Pressure 30.18 in    
Wind  
Wind Speed 10 mph (South)    
Max Wind Speed 20 mph    
Max Gust Speed 31 mph    
Visibility 10 miles    
Events      
T = Trace of Precipitation, MM = Missing Value Source: NWS Daily Summary

Daily Weather History Graph

Daily Weather History Graph

Search for Another Location

Airport:

Trip Planner

Search our weather history database for the weather conditions in past years. The results will help you decide how hot, cold, wet, or windy it might be!

Date:

Astronomy

Jun. 04, 2014 Rise Set
Actual Time 5:14 AM MST 7:40 PM MST
Civil Twilight 4:44 AM MST 8:09 PM MST
Nautical Twilight 4:08 AM MST 8:46 PM MST
Astronomical Twilight 3:28 AM MST 9:26 PM MST
Moon 11:27 AM MST (6/4) No Moon Set
Length of Visible Light 15h 24m
Length of Day
14h 25m
Waxing Crescent, 40% of the Moon is Illuminated
Jun 4
Waxing Crescent
Jun 5
First Quarter
Jun 12
Full
Jun 19
Last Quarter
Jun 27
New

Hourly Weather History & Observations

Time (MST) Temp. Windchill Dew Point Humidity Pressure Visibility Wind Dir Wind Speed Gust Speed Precip Events Conditions
12:15 AM 44.6 °F 40.2 °F -7.6 °F 11% 30.20 in 10.0 mi SSE 8.1 mph - N/A   Clear
12:35 AM 44.6 °F 39.7 °F -5.8 °F 12% 30.19 in 10.0 mi SSE 9.2 mph - N/A   Clear
12:55 AM 42.8 °F 37.5 °F -5.8 °F 13% 30.19 in 10.0 mi SSE 9.2 mph - N/A   Clear
1:15 AM 42.8 °F 37.0 °F -4.0 °F 14% 30.19 in 10.0 mi SSE 10.4 mph - N/A   Clear
1:35 AM 41.0 °F 35.2 °F -4.0 °F 15% 30.18 in 10.0 mi SSE 9.2 mph - N/A   Clear
1:55 AM 41.0 °F 35.2 °F -4.0 °F 15% 30.18 in 10.0 mi SSE 9.2 mph - N/A   Clear
2:15 AM 39.2 °F 32.5 °F -2.2 °F 17% 30.18 in 10.0 mi SSE 10.4 mph - N/A   Clear
2:35 AM 39.2 °F 33.6 °F -2.2 °F 17% 30.18 in 10.0 mi SSE 8.1 mph - N/A   Clear
2:55 AM 39.2 °F 32.5 °F -2.2 °F 17% 30.17 in 10.0 mi SSE 10.4 mph - N/A   Clear
3:15 AM 39.2 °F 32.0 °F -2.2 °F 17% 30.17 in 10.0 mi SSE 11.5 mph - N/A   Clear
3:35 AM 39.2 °F 32.5 °F -2.2 °F 17% 30.17 in 10.0 mi SSE 10.4 mph - N/A   Clear
3:55 AM 37.4 °F 30.8 °F -2.2 °F 19% 30.17 in 10.0 mi SSE 9.2 mph - N/A   Clear
4:15 AM 37.4 °F 30.8 °F -2.2 °F 19% 30.17 in 10.0 mi SSE 9.2 mph - N/A   Clear
4:35 AM 37.4 °F 30.3 °F -2.2 °F 19% 30.17 in 10.0 mi SSE 10.4 mph - N/A   Clear
4:55 AM 35.6 °F 29.2 °F -2.2 °F 20% 30.18 in 10.0 mi SSE 8.1 mph - N/A   Clear
5:15 AM 35.6 °F 28.6 °F -2.2 °F 20% 30.18 in 10.0 mi SSE 9.2 mph - N/A   Clear
5:35 AM 35.6 °F 28.0 °F -2.2 °F 20% 30.18 in 10.0 mi SSE 10.4 mph - N/A   Clear
5:55 AM 37.4 °F 30.3 °F -2.2 °F 19% 30.18 in 10.0 mi SSE 10.4 mph - N/A   Clear
6:15 AM 39.2 °F 33.0 °F -2.2 °F 17% 30.19 in 10.0 mi SSE 9.2 mph - N/A   Clear
6:35 AM 46.4 °F 41.9 °F -2.2 °F 13% 30.19 in 10.0 mi SSE 9.2 mph - N/A   Clear
6:55 AM 51.8 °F - -2.2 °F 11% 30.19 in 10.0 mi SSE 5.8 mph - N/A   Clear
7:15 AM 55.4 °F - -0.4 °F 10% 30.20 in 10.0 mi SE 5.8 mph - N/A   Clear
7:35 AM 64.4 °F - 1.4 °F 8% 30.20 in 10.0 mi South 4.6 mph - N/A   Clear
7:55 AM 68.0 °F - -4.0 °F 6% 30.20 in 10.0 mi SW 9.2 mph - N/A   Clear
8:15 AM 69.8 °F - -5.8 °F 5% 30.20 in 10.0 mi WSW 10.4 mph - N/A   Clear
8:35 AM 71.6 °F - -5.8 °F 5% 30.20 in 10.0 mi South 11.5 mph - N/A   Clear
8:55 AM 71.6 °F - -7.6 °F 4% 30.20 in 10.0 mi SW 10.4 mph - N/A   Clear
9:15 AM 73.4 °F - -11.2 °F 4% 30.20 in 10.0 mi SW 12.7 mph 19.6 mph N/A   Clear
9:35 AM 73.4 °F - -7.6 °F 4% 30.20 in 10.0 mi South 16.1 mph 21.9 mph N/A   Clear
9:55 AM 75.2 °F - -7.6 °F 4% 30.20 in 10.0 mi South 16.1 mph 23.0 mph N/A   Clear
10:15 AM 75.2 °F - -5.8 °F 4% 30.20 in 10.0 mi South 11.5 mph 27.6 mph N/A   Clear
10:35 AM 75.2 °F - -5.8 °F 4% 30.20 in 10.0 mi SW 15.0 mph 20.7 mph N/A   Clear
10:55 AM 75.2 °F - -4.0 °F 4% 30.20 in 10.0 mi South 16.1 mph 24.2 mph N/A   Clear
11:15 AM 75.2 °F - -4.0 °F 4% 30.20 in 10.0 mi South 18.4 mph 24.2 mph N/A   Clear
11:35 AM 75.2 °F - -4.0 °F 4% 30.20 in 10.0 mi South 17.3 mph 23.0 mph N/A   Clear
11:55 AM 77.0 °F - -4.0 °F 4% 30.20 in 10.0 mi South 15.0 mph 31.1 mph N/A   Clear
12:15 PM 78.8 °F - -0.4 °F 5% 30.19 in 10.0 mi SW 11.5 mph 20.7 mph N/A   Clear
12:35 PM 78.8 °F - -0.4 °F 5% 30.18 in 10.0 mi South 10.4 mph 26.5 mph N/A   Clear
12:55 PM 80.6 °F - -0.4 °F 4% 30.18 in 10.0 mi SSW 13.8 mph 27.6 mph N/A   Clear
1:15 PM 78.8 °F - -4.0 °F 4% 30.18 in 10.0 mi SSW 15.0 mph 19.6 mph N/A   Clear
1:35 PM 80.6 °F - -4.0 °F 4% 30.17 in 10.0 mi SSW 15.0 mph 24.2 mph N/A   Clear
1:55 PM 80.6 °F - -5.8 °F 4% 30.17 in 10.0 mi SW 10.4 mph 23.0 mph N/A   Clear
2:15 PM 80.6 °F - -7.6 °F 4% 30.17 in 10.0 mi SW 15.0 mph 26.5 mph N/A   Clear
2:35 PM 80.6 °F - -7.6 °F 4% 30.16 in 10.0 mi SSW 17.3 mph 25.3 mph N/A   Clear
2:55 PM 80.6 °F - -11.2 °F 4% 30.16 in 10.0 mi SSW 16.1 mph 25.3 mph N/A   Clear
3:15 PM 80.6 °F - -14.8 °F 4% 30.16 in 10.0 mi South 13.8 mph 20.7 mph N/A   Clear
3:35 PM 80.6 °F - -14.8 °F 4% 30.16 in 10.0 mi South 19.6 mph 23.0 mph N/A   Clear
3:55 PM 80.6 °F - -18.4 °F 4% 30.15 in 10.0 mi SSW 10.4 mph 24.2 mph N/A   Clear
4:15 PM 80.6 °F - -14.8 °F 4% 30.15 in 10.0 mi South 15.0 mph 19.6 mph N/A   Clear
4:35 PM 78.8 °F - -14.8 °F 4% 30.15 in 10.0 mi South 17.3 mph 20.7 mph N/A   Clear
4:55 PM 77.0 °F - -16.6 °F 4% 30.15 in 10.0 mi SSW 12.7 mph 19.6 mph N/A   Clear
5:15 PM 77.0 °F - -13.0 °F 4% 30.15 in 10.0 mi SSW 12.7 mph 19.6 mph N/A   Clear
5:35 PM 77.0 °F - -14.8 °F 4% 30.15 in 10.0 mi SSW 11.5 mph - N/A   Clear
5:55 PM 75.2 °F - -13.0 °F 4% 30.15 in 10.0 mi SSW 12.7 mph 16.1 mph N/A   Clear
6:15 PM 75.2 °F - -14.8 °F 4% 30.14 in 10.0 mi South 13.8 mph 17.3 mph N/A   Clear
6:35 PM 73.4 °F - -14.8 °F 4% 30.15 in 10.0 mi SSW 6.9 mph - N/A   Clear
6:55 PM 73.4 °F - -14.8 °F 4% 30.15 in 10.0 mi South 8.1 mph - N/A   Clear
7:15 PM 73.4 °F - -14.8 °F 4% 30.15 in 10.0 mi South 10.4 mph - N/A   Clear
7:35 PM 71.6 °F - -13.0 °F 4% 30.16 in 10.0 mi South 9.2 mph - N/A   Clear
7:55 PM 68.0 °F - -14.8 °F 4% 30.15 in 10.0 mi South 9.2 mph - N/A   Clear
8:15 PM 68.0 °F - -13.0 °F 4% 30.16 in 10.0 mi South 6.9 mph - N/A   Clear
8:35 PM 64.4 °F - -13.0 °F 4% 30.16 in 10.0 mi South 8.1 mph - N/A   Clear
8:55 PM 66.2 °F - -13.0 °F 4% 30.16 in 10.0 mi SSW 6.9 mph - N/A   Clear
9:15 PM 64.4 °F - -11.2 °F 5% 30.17 in 10.0 mi South 6.9 mph - N/A   Clear
9:35 PM 64.4 °F - -11.2 °F 5% 30.17 in 10.0 mi South 9.2 mph - N/A   Clear
9:55 PM 64.4 °F - -11.2 °F 5% 30.17 in 10.0 mi SSW 6.9 mph - N/A   Clear
10:15 PM 64.4 °F - -9.4 °F 5% 30.18 in 10.0 mi SSW 6.9 mph - N/A   Clear
10:35 PM 55.4 °F - -7.6 °F 7% 30.18 in 10.0 mi SE 5.8 mph - N/A   Clear
10:55 PM 55.4 °F - -7.6 °F 7% 30.18 in 10.0 mi SSE 5.8 mph - N/A   Clear
11:15 PM 51.8 °F - -5.8 °F 9% 30.18 in 10.0 mi SSE 6.9 mph - N/A   Clear
11:35 PM 53.6 °F - -5.8 °F 9% 30.18 in 10.0 mi East 3.5 mph - N/A   Clear
11:55 PM 57.2 °F - -4.0 °F 8% 30.18 in 10.0 mi ENE 3.5 mph - N/A   Clear